createdAt,value
2019-02-25T00:01:34.066Z,88810.81
2019-02-25T00:04:00.872Z,88805.62
2019-02-25T00:06:27.599Z,88810.75
2019-02-25T00:08:54.344Z,88805.27
2019-02-25T00:11:21.125Z,88799.06
2019-02-25T00:13:47.848Z,88807.20
2019-02-25T00:16:14.644Z,88804.19
2019-02-25T00:18:41.369Z,88798.77
2019-02-25T00:21:08.099Z,88796.45
2019-02-25T00:23:34.894Z,88801.78
2019-02-25T00:26:01.628Z,88804.00
2019-02-25T00:28:28.346Z,88799.63
2019-02-25T00:30:55.204Z,88796.25
2019-02-25T00:33:21.921Z,88791.60
2019-02-25T00:35:48.639Z,88797.86
2019-02-25T00:38:15.454Z,88801.98
2019-02-25T00:40:42.189Z,88804.58
2019-02-25T00:43:08.921Z,88815.77
2019-02-25T00:45:35.782Z,88810.34
2019-02-25T00:48:02.831Z,88805.73
2019-02-25T00:50:29.708Z,88802.67
2019-02-25T00:52:56.419Z,88803.97
2019-02-25T00:55:23.138Z,88803.45
2019-02-25T00:57:49.933Z,88791.83
2019-02-25T01:00:20.852Z,88793.16
2019-02-25T01:02:47.865Z,88786.44
2019-02-25T01:05:15.429Z,88786.20
2019-02-25T01:07:42.228Z,88787.27
2019-02-25T01:10:13.945Z,88795.60
2019-02-25T01:12:44.488Z,88792.80
2019-02-25T01:15:11.711Z,88796.43
2019-02-25T01:17:38.502Z,88799.57
2019-02-25T01:20:10.996Z,88798.06
2019-02-25T01:22:37.712Z,88792.62
2019-02-25T01:25:13.945Z,88793.19
2019-02-25T01:27:40.649Z,88793.47
2019-02-25T01:30:11.859Z,88790.67
2019-02-25T01:32:38.602Z,88796.89
2019-02-25T01:35:09.250Z,88805.20
2019-02-25T01:37:35.990Z,88802.86
2019-02-25T01:40:06.741Z,88807.53
2019-02-25T01:42:33.526Z,88801.80
2019-02-25T01:45:00.283Z,88805.14
2019-02-25T01:47:27.002Z,88804.63
2019-02-25T01:49:53.770Z,88802.86
2019-02-25T01:52:20.501Z,88802.66
2019-02-25T01:54:47.304Z,88801.71
2019-02-25T01:57:14.007Z,88808.15
2019-02-25T01:59:40.720Z,88804.48
2019-02-25T02:02:07.519Z,88798.55
2019-02-25T02:04:34.247Z,88798.83
2019-02-25T02:07:00.986Z,88797.23
2019-02-25T02:09:27.774Z,88795.93
2019-02-25T02:11:54.507Z,88792.82
2019-02-25T02:14:21.219Z,88790.72
2019-02-25T02:16:48.032Z,88795.39
2019-02-25T02:19:14.755Z,88786.11
2019-02-25T02:21:41.493Z,88787.35
2019-02-25T02:24:08.276Z,88791.22
2019-02-25T02:26:34.985Z,88790.39
2019-02-25T02:29:02.023Z,88788.59
2019-02-25T02:31:28.811Z,88790.49
2019-02-25T02:33:55.595Z,88790.02
2019-02-25T02:36:22.307Z,88788.16
2019-02-25T02:38:49.100Z,88781.47
2019-02-25T02:41:15.816Z,88785.69
2019-02-25T02:43:42.580Z,88784.41
2019-02-25T02:46:26.934Z,88783.42
2019-02-25T02:48:58.831Z,88785.05
2019-02-25T02:51:25.540Z,88783.80
2019-02-25T02:53:52.293Z,88784.83
2019-02-25T02:56:19.069Z,88786.12
2019-02-25T02:58:45.811Z,88783.30
2019-02-25T03:01:12.604Z,88788.53
2019-02-25T03:03:39.339Z,88785.45
2019-02-25T03:06:06.058Z,88787.25
2019-02-25T03:08:32.868Z,88784.38
2019-02-25T03:10:59.589Z,88783.11
2019-02-25T03:13:26.325Z,88790.32
2019-02-25T03:15:53.116Z,88789.78
2019-02-25T03:18:19.821Z,88793.92
2019-02-25T03:20:46.565Z,88796.54
2019-02-25T03:23:13.376Z,88796.84
2019-02-25T03:25:40.113Z,88791.19
2019-02-25T03:28:06.827Z,88798.72
2019-02-25T03:30:33.618Z,88792.54
2019-02-25T03:33:00.493Z,88799.06
2019-02-25T03:35:27.254Z,88795.70
2019-02-25T03:37:54.026Z,88796.50
2019-02-25T03:40:22.379Z,88797.81
2019-02-25T03:42:49.112Z,88792.38
2019-02-25T03:45:17.992Z,88791.11
2019-02-25T03:47:44.811Z,88787.27
2019-02-25T03:50:11.813Z,88780.83
2019-02-25T03:52:38.557Z,88785.45
2019-02-25T03:55:13.672Z,88782.64
2019-02-25T03:57:40.610Z,88791.97
2019-02-25T04:00:12.463Z,88788.36
2019-02-25T04:02:39.256Z,88787.08
2019-02-25T04:05:06.411Z,88794.09
2019-02-25T04:07:33.118Z,88788.45
2019-02-25T04:09:59.882Z,88791.01
2019-02-25T04:12:26.616Z,88793.55
2019-02-25T04:14:53.442Z,88786.84
2019-02-25T04:17:20.221Z,88800.82
2019-02-25T04:19:46.915Z,88796.42
2019-02-25T04:22:13.696Z,88804.22
2019-02-25T04:24:40.411Z,88797.98
2019-02-25T04:27:07.205Z,88797.50
2019-02-25T04:29:33.928Z,88804.00
2019-02-25T04:32:00.652Z,88805.52
2019-02-25T04:34:27.453Z,88802.69
2019-02-25T04:36:54.238Z,88804.00
2019-02-25T04:39:20.977Z,88804.00
2019-02-25T04:41:47.764Z,88802.99
2019-02-25T04:44:14.484Z,88805.84
2019-02-25T04:46:41.292Z,88805.61
2019-02-25T04:49:08.019Z,88814.91
2019-02-25T04:51:34.740Z,88816.22
2019-02-25T04:54:01.512Z,88808.99
2019-02-25T04:56:28.224Z,88807.64
2019-02-25T04:58:55.027Z,88806.11
2019-02-25T05:01:21.761Z,88804.81
2019-02-25T05:03:48.486Z,88805.91
2019-02-25T05:06:15.273Z,88805.86
2019-02-25T05:08:41.996Z,88804.83
2019-02-25T05:11:08.812Z,88810.27
2019-02-25T05:13:35.547Z,88805.05
2019-02-25T05:16:02.265Z,88804.81
2019-02-25T05:18:29.052Z,88809.73
2019-02-25T05:20:55.791Z,88803.55
2019-02-25T05:23:22.518Z,88806.66
2019-02-25T05:25:49.323Z,88802.55
2019-02-25T05:28:16.060Z,88802.27
2019-02-25T05:30:42.775Z,88798.88
2019-02-25T05:33:09.580Z,88797.84
2019-02-25T05:35:36.290Z,88803.24
2019-02-25T05:38:03.046Z,88806.13
2019-02-25T05:40:29.796Z,88806.14
2019-02-25T05:42:56.519Z,88800.20
2019-02-25T05:45:23.311Z,88797.68
2019-02-25T05:47:50.068Z,88807.78
2019-02-25T05:50:20.413Z,88807.28
2019-02-25T05:52:47.223Z,88795.65
2019-02-25T05:55:16.708Z,88799.02
2019-02-25T05:57:43.546Z,88800.60
2019-02-25T06:00:18.697Z,88810.66
2019-02-25T06:02:45.443Z,88811.18
2019-02-25T06:05:12.239Z,88810.45
2019-02-25T06:07:38.964Z,88814.88
2019-02-25T06:10:08.725Z,88810.48
2019-02-25T06:12:35.486Z,88811.27
2019-02-25T06:15:03.516Z,88812.84
2019-02-25T06:17:30.297Z,88804.81
2019-02-25T06:19:57.013Z,88808.18
2019-02-25T06:22:43.764Z,88820.33
2019-02-25T06:25:12.699Z,88812.05
2019-02-25T06:27:39.422Z,88811.75
2019-02-25T06:30:21.699Z,88810.47
2019-02-25T06:32:48.480Z,88806.82
2019-02-25T06:35:15.375Z,88816.42
2019-02-25T06:37:42.887Z,88816.12
2019-02-25T06:40:15.325Z,88810.88
2019-02-25T06:42:41.934Z,88808.26
2019-02-25T06:45:12.199Z,88806.96
2019-02-25T06:47:38.879Z,88813.19
2019-02-25T06:50:08.658Z,88817.02
2019-02-25T06:52:35.437Z,88814.99
2019-02-25T06:55:03.930Z,88809.86
2019-02-25T06:57:30.677Z,88814.05
2019-02-25T06:59:57.408Z,88810.17
2019-02-25T07:02:24.314Z,88808.28
2019-02-25T07:04:51.036Z,88809.31
2019-02-25T07:07:17.771Z,88803.05
2019-02-25T07:09:44.568Z,88809.96
2019-02-25T07:12:11.291Z,88812.45
2019-02-25T07:14:38.032Z,88810.58
2019-02-25T07:17:04.768Z,88804.52
2019-02-25T07:19:31.495Z,88806.23
2019-02-25T07:21:58.282Z,88805.66
2019-02-25T07:24:25.021Z,88809.97
2019-02-25T07:26:51.745Z,88800.62
2019-02-25T07:29:18.525Z,88806.30
2019-02-25T07:31:45.263Z,88809.60
2019-02-25T07:34:12.005Z,88809.53
2019-02-25T07:36:38.822Z,88812.53
2019-02-25T07:39:06.057Z,88809.56
2019-02-25T07:41:32.833Z,88809.71
2019-02-25T07:43:59.626Z,88813.50
2019-02-25T07:46:26.344Z,88807.22
2019-02-25T07:48:53.074Z,88808.95
2019-02-25T07:51:19.845Z,88813.34
2019-02-25T07:53:46.612Z,88807.34
2019-02-25T07:56:13.343Z,88810.78
2019-02-25T07:58:40.148Z,88797.39
2019-02-25T08:01:06.858Z,88795.65
2019-02-25T08:03:33.581Z,88798.31
2019-02-25T08:06:00.336Z,88792.86
2019-02-25T08:08:27.077Z,88800.59
2019-02-25T08:10:53.799Z,88792.62
2019-02-25T08:13:20.566Z,88803.95
2019-02-25T08:15:47.277Z,88804.02
2019-02-25T08:18:14.066Z,88798.63
2019-02-25T08:20:40.777Z,88787.01
2019-02-25T08:23:07.491Z,88795.89
2019-02-25T08:25:34.257Z,88793.94
2019-02-25T08:28:00.994Z,88790.41
2019-02-25T08:30:27.725Z,88793.02
2019-02-25T08:32:54.490Z,88791.00
2019-02-25T08:35:49.439Z,88784.59
2019-02-25T08:38:16.235Z,88786.41
2019-02-25T08:40:47.011Z,88789.88
2019-02-25T08:43:16.510Z,88790.17
2019-02-25T08:45:43.316Z,88793.16
2019-02-25T08:48:10.058Z,88789.34
2019-02-25T08:50:36.774Z,88791.49
2019-02-25T08:53:03.545Z,88784.83
2019-02-25T08:55:30.265Z,88783.80
2019-02-25T08:57:57.058Z,88780.13
2019-02-25T09:00:23.788Z,88785.66
2019-02-25T09:02:50.514Z,88782.53
2019-02-25T09:05:17.299Z,88779.87
2019-02-25T09:07:44.030Z,88784.91
2019-02-25T09:10:13.636Z,88784.25
2019-02-25T09:12:40.470Z,88784.66
2019-02-25T09:15:11.812Z,88783.71
2019-02-25T09:17:43.735Z,88789.87
2019-02-25T09:20:12.486Z,88784.06
2019-02-25T09:22:39.229Z,88779.61
2019-02-25T09:25:12.330Z,88776.92
2019-02-25T09:27:39.160Z,88781.46
2019-02-25T09:30:16.114Z,88781.18
2019-02-25T09:32:43.144Z,88774.98
2019-02-25T09:35:09.999Z,88772.34
2019-02-25T09:37:37.354Z,88765.55
2019-02-25T09:40:11.234Z,88765.78
2019-02-25T09:42:38.012Z,88772.82
2019-02-25T09:45:12.881Z,88765.17
2019-02-25T09:47:39.616Z,88760.16
2019-02-25T09:50:16.329Z,88767.41
2019-02-25T09:52:43.050Z,88768.58
2019-02-25T09:55:12.179Z,88766.80
2019-02-25T09:57:38.955Z,88762.42
2019-02-25T10:00:19.269Z,88760.06
2019-02-25T10:02:46.042Z,88758.45
2019-02-25T10:05:12.966Z,88756.23
2019-02-25T10:07:39.703Z,88761.75
2019-02-25T10:10:17.121Z,88755.22
2019-02-25T10:12:43.863Z,88745.27
2019-02-25T10:15:15.796Z,88746.88
2019-02-25T10:17:42.603Z,88749.71
2019-02-25T10:20:09.411Z,88751.98
2019-02-25T10:22:36.135Z,88751.34
2019-02-25T10:25:08.845Z,88746.72
2019-02-25T10:27:35.581Z,88746.77
2019-02-25T10:30:09.140Z,88747.98
2019-02-25T10:32:35.854Z,88750.84
2019-02-25T10:35:03.483Z,88744.38
2019-02-25T10:37:30.273Z,88743.08
2019-02-25T10:39:56.999Z,88743.66
2019-02-25T10:42:23.794Z,88737.84
2019-02-25T10:44:50.604Z,88731.94
2019-02-25T10:47:19.496Z,88727.21
2019-02-25T10:49:46.275Z,88727.70
2019-02-25T10:52:14.984Z,88722.31
2019-02-25T10:54:41.590Z,88721.72
2019-02-25T10:57:08.386Z,88718.86
2019-02-25T10:59:36.900Z,88712.27
2019-02-25T11:02:03.765Z,88715.59
2019-02-25T11:04:30.535Z,88719.38
2019-02-25T11:06:58.548Z,88709.05
2019-02-25T11:09:25.885Z,88703.40
2019-02-25T11:11:53.092Z,88701.45
2019-02-25T11:14:21.247Z,88688.14
2019-02-25T11:16:49.703Z,88689.70
2019-02-25T11:19:16.556Z,88689.64
2019-02-25T11:21:44.303Z,88684.96
2019-02-25T11:24:11.249Z,88689.78
2019-02-25T11:26:37.985Z,88683.69
2019-02-25T11:29:05.613Z,88686.34
2019-02-25T11:31:33.314Z,88678.03
2019-02-25T11:34:00.709Z,88686.14
2019-02-25T11:36:28.633Z,88685.45
2019-02-25T11:38:55.338Z,88679.33
2019-02-25T11:41:22.116Z,88673.28
2019-02-25T11:43:50.992Z,88670.04
2019-02-25T11:46:17.433Z,88665.84
2019-02-25T11:48:44.248Z,88666.38
2019-02-25T11:51:10.956Z,88659.22
2019-02-25T11:53:37.675Z,88652.70
2019-02-25T11:56:04.437Z,88647.25
2019-02-25T11:58:31.158Z,88644.70
2019-02-25T12:00:57.952Z,88641.39
2019-02-25T12:03:24.682Z,88649.77
2019-02-25T12:05:52.618Z,88647.23
2019-02-25T12:08:19.517Z,88651.83
2019-02-25T12:10:46.240Z,88643.25
2019-02-25T12:13:12.964Z,88651.11
2019-02-25T12:15:39.706Z,88645.23
2019-02-25T12:18:06.424Z,88642.51
2019-02-25T12:20:33.216Z,88643.36
2019-02-25T12:22:59.972Z,88642.77
2019-02-25T12:25:26.706Z,88636.55
2019-02-25T12:27:53.492Z,88640.25
2019-02-25T12:30:23.230Z,88632.83
2019-02-25T12:32:50.041Z,88627.69
2019-02-25T12:35:17.036Z,88633.03
2019-02-25T12:37:43.738Z,88626.55
2019-02-25T12:40:13.005Z,88625.20
2019-02-25T12:42:39.794Z,88622.34
2019-02-25T12:45:09.484Z,88624.23
2019-02-25T12:47:36.206Z,88621.19
2019-02-25T12:50:07.956Z,88616.84
2019-02-25T12:52:34.596Z,88613.58
2019-02-25T12:55:01.382Z,88614.89
2019-02-25T12:57:28.106Z,88616.97
2019-02-25T12:59:54.876Z,88614.71
2019-02-25T13:02:21.642Z,88600.83
2019-02-25T13:04:48.361Z,88605.00
2019-02-25T13:07:15.109Z,88609.39
2019-02-25T13:09:41.897Z,88618.52
2019-02-25T13:12:08.619Z,88615.30
2019-02-25T13:14:35.381Z,88621.38
2019-02-25T13:17:02.163Z,88619.31
2019-02-25T13:19:28.889Z,88613.59
2019-02-25T13:21:55.625Z,88610.91
2019-02-25T13:24:22.434Z,88610.70
2019-02-25T13:26:49.162Z,88601.94
2019-02-25T13:29:15.895Z,88606.75
2019-02-25T13:31:42.672Z,88610.38
2019-02-25T13:34:09.400Z,88613.37
2019-02-25T13:36:36.158Z,88619.28
2019-02-25T13:39:05.493Z,88621.36
2019-02-25T13:41:32.241Z,88617.76
2019-02-25T13:43:59.330Z,88623.48
2019-02-25T13:46:26.081Z,88621.94
2019-02-25T13:48:52.818Z,88626.48
2019-02-25T13:51:19.611Z,88621.49
2019-02-25T13:53:46.335Z,88637.22
2019-02-25T13:56:13.072Z,88635.80
2019-02-25T13:58:39.849Z,88638.42
2019-02-25T14:01:06.569Z,88640.03
2019-02-25T14:03:33.298Z,88637.98
2019-02-25T14:06:00.206Z,88636.34
2019-02-25T14:08:27.230Z,88638.64
2019-02-25T14:10:53.975Z,88634.59
2019-02-25T14:13:20.774Z,88638.52
2019-02-25T14:15:47.594Z,88631.91
2019-02-25T14:18:14.533Z,88639.86
2019-02-25T14:20:41.912Z,88643.50
2019-02-25T14:23:08.745Z,88643.98
2019-02-25T14:25:35.779Z,88640.62
2019-02-25T14:28:07.870Z,88637.23
2019-02-25T14:30:33.882Z,88641.57
2019-02-25T14:33:00.689Z,88640.23
2019-02-25T14:35:31.540Z,88637.88
2019-02-25T14:38:07.259Z,88639.86
2019-02-25T14:40:32.546Z,88642.46
2019-02-25T14:42:59.944Z,88643.34
2019-02-25T14:45:28.849Z,88642.81
2019-02-25T14:47:59.617Z,88649.91
2019-02-25T14:50:25.311Z,88644.37
2019-02-25T14:52:52.265Z,88636.97
2019-02-25T14:55:19.166Z,88639.31
2019-02-25T14:57:45.905Z,88636.29
2019-02-25T15:00:26.158Z,88638.06
2019-02-25T15:02:53.419Z,88641.61
2019-02-25T15:05:22.455Z,88651.20
2019-02-25T15:07:50.822Z,88651.41
2019-02-25T15:10:17.891Z,88653.42
2019-02-25T15:12:44.939Z,88649.70
2019-02-25T15:15:22.379Z,88652.40
2019-02-25T15:17:50.585Z,88656.98
2019-02-25T15:20:20.841Z,88660.33
2019-02-25T15:22:47.921Z,88659.67
2019-02-25T15:25:16.368Z,88662.91
2019-02-25T15:27:43.171Z,88662.16
2019-02-25T15:30:22.711Z,88667.98
2019-02-25T15:32:55.800Z,88662.95
2019-02-25T15:35:18.266Z,88665.88
2019-02-25T15:37:46.713Z,88667.33
2019-02-25T15:40:18.000Z,88672.17
2019-02-25T15:42:44.114Z,88667.95
2019-02-25T15:45:16.991Z,88669.93
2019-02-25T15:47:44.821Z,88667.84
2019-02-25T15:50:15.815Z,88669.16
2019-02-25T15:52:42.809Z,88660.27
2019-02-25T15:55:15.019Z,88666.41
2019-02-25T15:57:41.716Z,88666.91
2019-02-25T16:00:19.070Z,88664.59
2019-02-25T16:02:50.840Z,88667.98
2019-02-25T16:05:17.643Z,88670.00
2019-02-25T16:07:44.369Z,88658.81
2019-02-25T16:10:11.984Z,88662.71
2019-02-25T16:12:40.289Z,88657.88
2019-02-25T16:15:15.743Z,88657.63
2019-02-25T16:17:46.422Z,88661.31
2019-02-25T16:20:17.563Z,88662.80
2019-02-25T16:22:44.668Z,88667.55
2019-02-25T16:25:23.065Z,88666.02
2019-02-25T16:27:52.135Z,88664.11
2019-02-25T16:30:21.327Z,88664.17
2019-02-25T16:32:48.411Z,88666.72
2019-02-25T16:35:15.761Z,88674.05
2019-02-25T16:37:42.807Z,88673.03
2019-02-25T16:40:17.407Z,88673.20
2019-02-25T16:42:44.343Z,88669.45
2019-02-25T16:45:22.412Z,88660.42
2019-02-25T16:47:49.140Z,88666.16
2019-02-25T16:50:16.957Z,88662.52
2019-02-25T16:52:47.336Z,88669.13
2019-02-25T16:55:22.656Z,88673.95
2019-02-25T16:57:50.165Z,88672.31
2019-02-25T17:00:29.625Z,88680.05
2019-02-25T17:02:54.535Z,88682.98
2019-02-25T17:05:21.366Z,88676.36
2019-02-25T17:07:49.007Z,88672.06
2019-02-25T17:10:19.404Z,88672.14
2019-02-25T17:12:47.924Z,88673.16
2019-02-25T17:15:17.304Z,88674.20
2019-02-25T17:17:44.100Z,88679.13
2019-02-25T17:20:13.723Z,88684.84
2019-02-25T17:22:40.440Z,88683.48
2019-02-25T17:25:12.094Z,88686.67
2019-02-25T17:27:39.152Z,88685.27
2019-02-25T17:30:17.446Z,88691.95
2019-02-25T17:32:46.628Z,88688.28
2019-02-25T17:35:16.777Z,88695.66
2019-02-25T17:37:43.630Z,88699.73
2019-02-25T17:40:13.763Z,88704.05
2019-02-25T17:42:40.560Z,88704.38
2019-02-25T17:45:25.046Z,88703.35
2019-02-25T17:47:58.210Z,88706.67
2019-02-25T17:50:21.326Z,88710.67
2019-02-25T17:52:48.167Z,88705.73
2019-02-25T17:55:29.290Z,88707.70
2019-02-25T17:57:56.861Z,88711.94
2019-02-25T18:00:26.679Z,88711.63
2019-02-25T18:02:54.997Z,88711.55
2019-02-25T18:05:22.816Z,88713.52
2019-02-25T18:07:49.959Z,88714.62
2019-02-25T18:10:17.241Z,88701.16
2019-02-25T18:12:44.479Z,88710.91
2019-02-25T18:15:19.578Z,88710.70
2019-02-25T18:17:48.883Z,88711.66
2019-02-25T18:20:15.960Z,88712.86
2019-02-25T18:22:43.134Z,88708.20
2019-02-25T18:25:12.787Z,88710.63
2019-02-25T18:27:41.387Z,88711.54
2019-02-25T18:30:13.107Z,88697.41
2019-02-25T18:32:40.427Z,88699.06
2019-02-25T18:35:08.356Z,88704.44
2019-02-25T18:37:35.892Z,88705.03
2019-02-25T18:40:11.674Z,88701.25
2019-02-25T18:42:40.854Z,88692.94
2019-02-25T18:45:16.049Z,88694.55
2019-02-25T18:47:43.659Z,88701.98
2019-02-25T18:50:21.392Z,88688.41
2019-02-25T18:52:50.142Z,88696.30
2019-02-25T18:55:20.056Z,88695.61
2019-02-25T18:57:50.147Z,88699.45
2019-02-25T19:00:28.254Z,88708.53
2019-02-25T19:02:56.179Z,88706.79
2019-02-25T19:05:25.405Z,88700.52
2019-02-25T19:07:55.379Z,88705.95
2019-02-25T19:10:24.585Z,88713.37
2019-02-25T19:12:56.328Z,88712.56
2019-02-25T19:15:23.752Z,88713.22
2019-02-25T19:17:52.160Z,88714.95
2019-02-25T19:20:19.798Z,88717.25
2019-02-25T19:22:46.980Z,88716.88
2019-02-25T19:25:18.127Z,88720.29
2019-02-25T19:27:47.969Z,88721.23
2019-02-25T19:30:19.695Z,88719.00
2019-02-25T19:32:46.906Z,88720.11
2019-02-25T19:35:15.019Z,88718.89
2019-02-25T19:37:44.317Z,88723.74
2019-02-25T19:40:20.054Z,88720.26
2019-02-25T19:42:51.339Z,88713.97
2019-02-25T19:45:17.703Z,88724.92
2019-02-25T19:47:45.592Z,88722.73
2019-02-25T19:50:20.905Z,88714.92
2019-02-25T19:52:48.118Z,88714.14
2019-02-25T19:55:17.744Z,88708.71
2019-02-25T19:57:44.395Z,88714.03
2019-02-25T20:00:22.305Z,88716.69
2019-02-25T20:02:49.179Z,88712.41
2019-02-25T20:05:17.356Z,88715.49
2019-02-25T20:07:45.280Z,88708.09
2019-02-25T20:10:13.702Z,88709.03
2019-02-25T20:12:40.942Z,88710.59
2019-02-25T20:15:16.372Z,88715.80
2019-02-25T20:17:46.241Z,88724.97
2019-02-25T20:20:15.009Z,88717.20
2019-02-25T20:22:41.819Z,88717.20
2019-02-25T20:25:16.290Z,88723.23
2019-02-25T20:27:42.875Z,88728.28
2019-02-25T20:30:16.100Z,88726.35
2019-02-25T20:32:44.739Z,88728.18
2019-02-25T20:35:15.720Z,88720.25
2019-02-25T20:37:43.102Z,88727.69
2019-02-25T20:40:11.367Z,88719.84
2019-02-25T20:42:38.185Z,88720.07
2019-02-25T20:45:25.222Z,88720.67
2019-02-25T20:47:54.465Z,88722.27
2019-02-25T20:50:22.346Z,88722.64
2019-02-25T20:52:49.173Z,88721.59
2019-02-25T20:55:15.896Z,88725.07
2019-02-25T20:57:43.731Z,88717.99
2019-02-25T21:00:20.696Z,88721.34
2019-02-25T21:02:47.417Z,88712.14
2019-02-25T21:05:16.718Z,88714.99
2019-02-25T21:07:42.995Z,88728.45
2019-02-25T21:10:14.030Z,88728.84
2019-02-25T21:12:40.824Z,88734.27
2019-02-25T21:15:13.506Z,88726.86
2019-02-25T21:17:40.317Z,88734.37
2019-02-25T21:20:14.194Z,88734.19
2019-02-25T21:22:41.241Z,88727.55
2019-02-25T21:25:10.589Z,88734.42
2019-02-25T21:27:39.073Z,88731.11
2019-02-25T21:30:16.441Z,88738.48
2019-02-25T21:32:45.663Z,88736.27
2019-02-25T21:35:14.284Z,88731.81
2019-02-25T21:37:45.437Z,88732.84
2019-02-25T21:40:22.295Z,88735.80
2019-02-25T21:42:51.376Z,88728.08
2019-02-25T21:45:20.209Z,88725.91
2019-02-25T21:47:47.603Z,88725.17
2019-02-25T21:50:20.227Z,88721.09
2019-02-25T21:52:47.945Z,88721.52
2019-02-25T21:55:18.102Z,88723.14
2019-02-25T21:57:45.709Z,88721.61
2019-02-25T22:00:20.657Z,88724.65
2019-02-25T22:02:50.925Z,88725.98
2019-02-25T22:05:18.957Z,88722.78
2019-02-25T22:07:47.554Z,88725.12
2019-02-25T22:10:18.288Z,88722.61
2019-02-25T22:12:45.023Z,88725.85
2019-02-25T22:15:18.035Z,88728.28
2019-02-25T22:17:46.205Z,88724.97
2019-02-25T22:20:16.466Z,88725.50
2019-02-25T22:22:43.248Z,88729.44
2019-02-25T22:25:18.109Z,88725.14
2019-02-25T22:27:45.584Z,88726.48
2019-02-25T22:30:17.295Z,88733.27
2019-02-25T22:32:44.002Z,88737.52
2019-02-25T22:35:14.737Z,88740.15
2019-02-25T22:37:44.165Z,88737.92
2019-02-25T22:40:15.050Z,88736.37
2019-02-25T22:42:42.002Z,88743.20
2019-02-25T22:45:20.540Z,88744.87
2019-02-25T22:47:47.323Z,88751.84
2019-02-25T22:50:15.311Z,88749.58
2019-02-25T22:52:42.208Z,88759.42
2019-02-25T22:55:12.240Z,88765.40
2019-02-25T22:57:40.850Z,88766.66
2019-02-25T23:00:34.985Z,88757.61
2019-02-25T23:03:01.716Z,88754.52
2019-02-25T23:05:29.528Z,88749.36
2019-02-25T23:07:56.276Z,88746.66
2019-02-25T23:10:24.208Z,88749.92
2019-02-25T23:12:51.447Z,88748.66
2019-02-25T23:15:19.981Z,88748.17
2019-02-25T23:17:46.715Z,88750.55
2019-02-25T23:20:13.437Z,88753.44
2019-02-25T23:22:40.211Z,88761.16
2019-02-25T23:25:10.560Z,88754.77
2019-02-25T23:27:38.944Z,88752.28
2019-02-25T23:30:13.442Z,88756.17
2019-02-25T23:32:40.188Z,88759.13
2019-02-25T23:35:09.449Z,88765.10
2019-02-25T23:37:36.000Z,88760.66
2019-02-25T23:40:07.755Z,88756.73
2019-02-25T23:42:37.380Z,88762.22
2019-02-25T23:45:12.996Z,88764.16
2019-02-25T23:47:41.143Z,88759.72
2019-02-25T23:50:13.177Z,88756.89
2019-02-25T23:52:39.270Z,88752.74
2019-02-25T23:55:14.299Z,88750.17
2019-02-25T23:57:39.473Z,88748.13
